Time;durP1;ratioP1;P1;durP2;ratioP2;P2;SDS_P1;SDS_P2;PMS_P1;PMS_P2;Temp;Humidity;BMP_temperature;BMP_pressure;BME280_temperature;BME280_humidity;BME280_pressure;Samples;Min_cycle;Max_cycle;Signal;HPM_P1;HPM_P2
2021/04/24 00:09:19;;;;;;;21.3;17.1;;;;;;;4.16;82.40234;99308.32;;;;
2021/04/24 00:19:17;;;;;;;25.3;18.2;;;;;;;4.17;83.40234;99309.91;;;;
2021/04/24 00:29:15;;;;;;;41.5;17.8;;;;;;;4.15;83.86523;99310.18;;;;
2021/04/24 00:39:13;;;;;;;23.7;15.9;;;;;;;4.08;83.77344;99300.74;;;;
2021/04/24 00:49:11;;;;;;;24.1;15.7;;;;;;;4.02;83.61719;99305.22;;;;
2021/04/24 00:59:09;;;;;;;23.1;16.3;;;;;;;4;83.07227;99292.11;;;;
2021/04/24 01:09:08;;;;;;;21.9;16.5;;;;;;;3.97;83.2666;99292.61;;;;
2021/04/24 01:19:06;;;;;;;21;14.1;;;;;;;3.95;83.67383;99286.73;;;;
2021/04/24 01:29:04;;;;;;;23.4;15.3;;;;;;;3.88;83.39355;99291.44;;;;
2021/04/24 01:39:02;;;;;;;21.7;14.7;;;;;;;3.75;84.08789;99283.77;;;;
2021/04/24 01:49:00;;;;;;;21.5;16.7;;;;;;;3.67;85.04688;99278.88;;;;
2021/04/24 01:58:58;;;;;;;19.1;13.6;;;;;;;3.68;85.14844;99261.81;;;;
2021/04/24 02:08:56;;;;;;;24;14.3;;;;;;;3.71;85.60742;99264.02;;;;
2021/04/24 02:18:54;;;;;;;22;16.3;;;;;;;3.75;86.1377;99251.78;;;;
2021/04/24 02:28:52;;;;;;;20.6;15.5;;;;;;;3.81;86.29199;99237.48;;;;
2021/04/24 02:38:50;;;;;;;19.4;14.8;;;;;;;3.85;86.0127;99235.13;;;;
2021/04/24 02:48:48;;;;;;;27.1;12.9;;;;;;;3.77;85.64258;99211.56;;;;
2021/04/24 02:58:47;;;;;;;16.5;9.9;;;;;;;3.89;83.14941;99212.23;;;;
2021/04/24 03:08:45;;;;;;;16.6;7.8;;;;;;;4.03;81.52441;99229.47;;;;
2021/04/24 03:18:43;;;;;;;22.7;10.1;;;;;;;4.11;82.54883;99247.7;;;;
2021/04/24 03:28:41;;;;;;;18.5;15.6;;;;;;;4.15;82.64453;99234.67;;;;
2021/04/24 03:38:39;;;;;;;21.9;13.8;;;;;;;4.13;83.13867;99266.14;;;;
2021/04/24 03:48:37;;;;;;;21.3;15.2;;;;;;;4.15;82.74512;99258.69;;;;
2021/04/24 03:58:36;;;;;;;20.3;13.4;;;;;;;4.23;81.89453;99279.59;;;;
2021/04/24 04:08:33;;;;;;;16.9;9.5;;;;;;;4.28;81.47168;99287.64;;;;
2021/04/24 04:18:35;;;;;;;17.1;9.1;;;;;;;4.37;80.35547;99297.63;;;;
2021/04/24 04:28:29;;;;;;;15.9;10.4;;;;;;;4.52;79.6377;99294.32;;;;
2021/04/24 04:38:27;;;;;;;15;11;;;;;;;4.53;79.48535;99309.29;;;;
2021/04/24 04:48:25;;;;;;;20.1;14.4;;;;;;;4.56;80.54785;99312.27;;;;
2021/04/24 04:58:25;;;;;;;19.7;13.6;;;;;;;4.65;81.19629;99325.17;;;;
2021/04/24 05:08:21;;;;;;;32.6;14.9;;;;;;;4.81;80.13672;99337.62;;;;
2021/04/24 05:18:20;;;;;;;26;15.8;;;;;;;4.92;80.95703;99323.31;;;;
2021/04/24 05:28:18;;;;;;;28.4;16;;;;;;;5.08;79.23047;99312.52;;;;
2021/04/24 05:38:16;;;;;;;19.4;15.4;;;;;;;5.35;76.10449;99327.69;;;;
2021/04/24 05:48:14;;;;;;;18.6;13.2;;;;;;;5.56;71.49805;99319.58;;;;
2021/04/24 05:58:12;;;;;;;19.3;14.2;;;;;;;5.76;68.54395;99320.79;;;;
2021/04/24 06:08:11;;;;;;;22.7;15;;;;;;;6;68.76172;99327.39;;;;
2021/04/24 06:18:09;;;;;;;17.2;10.6;;;;;;;6.29;65.6377;99339.29;;;;
2021/04/24 06:28:07;;;;;;;15.5;12.3;;;;;;;6.3;65.51563;99330.2;;;;
2021/04/24 06:38:06;;;;;;;16.6;11.3;;;;;;;6.66;65.50293;99330.34;;;;
2021/04/24 06:48:04;;;;;;;15.6;11.5;;;;;;;6.93;63.28809;99342.47;;;;
2021/04/24 06:58:02;;;;;;;12.3;10;;;;;;;7.04;61.34668;99351.33;;;;
2021/04/24 07:08:01;;;;;;;13.6;8.7;;;;;;;7.23;60.5293;99338.2;;;;
2021/04/24 07:17:59;;;;;;;19.4;9.9;;;;;;;7.43;59.54492;99336.33;;;;
2021/04/24 07:27:57;;;;;;;18.5;8.5;;;;;;;7.69;57.72266;99329.08;;;;
2021/04/24 07:37:56;;;;;;;12.1;7.8;;;;;;;7.86;57.12402;99328.78;;;;
2021/04/24 07:47:54;;;;;;;14.6;7.7;;;;;;;8.1;58.03711;99335.98;;;;
2021/04/24 07:57:53;;;;;;;10.8;7.8;;;;;;;8.39;60.5459;99325.45;;;;
2021/04/24 08:07:52;;;;;;;16;7.2;;;;;;;8.73;55.15918;99320.17;;;;
2021/04/24 08:17:50;;;;;;;18.3;7.4;;;;;;;8.95;55.24414;99317.09;;;;
2021/04/24 08:27:49;;;;;;;13.3;6.5;;;;;;;9.01;55.28613;99314.09;;;;
2021/04/24 08:37:48;;;;;;;10.9;5.9;;;;;;;9.34;53.65137;99328.63;;;;
2021/04/24 08:47:46;;;;;;;11;5.9;;;;;;;9.46;50.84375;99321.02;;;;
2021/04/24 08:57:45;;;;;;;8.8;5.9;;;;;;;9.88;52.29883;99311.47;;;;
2021/04/24 09:07:44;;;;;;;8.4;5.9;;;;;;;10.13;51.6377;99303.91;;;;
2021/04/24 09:17:55;;;;;;;11.5;5.4;;;;;;;10.31;49.61328;99301.61;;;;
2021/04/24 09:27:48;;;;;;;13.4;6.2;;;;;;;10.68;50.12207;99293.58;;;;
2021/04/24 09:37:41;;;;;;;9;6.4;;;;;;;11.57;49.37988;99286.23;;;;
2021/04/24 09:47:45;;;;;;;10.6;6.5;;;;;;;11.7;46.33691;99273.88;;;;
2021/04/24 09:57:39;;;;;;;10.8;6.5;;;;;;;11.66;46.56055;99279.08;;;;
2021/04/24 10:07:39;;;;;;;9.2;5.6;;;;;;;11.83;44.82031;99263.13;;;;
2021/04/24 10:17:37;;;;;;;8;5.2;;;;;;;10.95;45.5957;99263.25;;;;
2021/04/24 10:27:37;;;;;;;8.9;6;;;;;;;11.31;44.9834;99260.8;;;;
2021/04/24 10:37:37;;;;;;;7.5;5.8;;;;;;;10.99;47.59473;99253.48;;;;
2021/04/24 10:47:55;;;;;;;10;6.4;;;;;;;11.75;46.94727;99244.91;;;;
2021/04/24 10:57:33;;;;;;;16.3;7.4;;;;;;;12.2;46.41211;99234.3;;;;
2021/04/24 11:07:32;;;;;;;11.8;6.2;;;;;;;12.14;43.78906;99225.5;;;;
2021/04/24 11:17:31;;;;;;;10.8;6.5;;;;;;;11.03;45.2627;99244.52;;;;
2021/04/24 11:27:30;;;;;;;9.1;6.3;;;;;;;10.94;46.70117;99235.47;;;;
2021/04/24 11:37:31;;;;;;;11.3;6.4;;;;;;;11.77;47.58789;99212.98;;;;
2021/04/24 11:47:28;;;;;;;14.6;8.8;;;;;;;12.07;44.86816;99207;;;;
2021/04/24 11:57:28;;;;;;;9.8;6.1;;;;;;;12.45;43.40723;99204.02;;;;
2021/04/24 12:07:27;;;;;;;8.8;6.5;;;;;;;12.88;44.29785;99196.25;;;;
2021/04/24 12:17:26;;;;;;;14.4;6.3;;;;;;;12.4;42.26953;99198.72;;;;
2021/04/24 12:27:25;;;;;;;8.4;5;;;;;;;12.2;43.56641;99189.16;;;;
2021/04/24 12:37:24;;;;;;;13.7;6.4;;;;;;;12.25;41.07617;99170.11;;;;
2021/04/24 12:47:23;;;;;;;8.3;5.1;;;;;;;12.24;43.38672;99168.53;;;;
2021/04/24 12:57:23;;;;;;;7.3;4.6;;;;;;;12.15;41.50195;99146.02;;;;
2021/04/24 13:07:22;;;;;;;7.9;4.8;;;;;;;12.3;40.50781;99144.89;;;;
2021/04/24 13:17:21;;;;;;;9.5;4.4;;;;;;;12.82;39.99414;99129.86;;;;
2021/04/24 13:27:20;;;;;;;8.1;4.5;;;;;;;12.85;38.4375;99119.22;;;;
2021/04/24 13:37:21;;;;;;;10.6;5.6;;;;;;;13.47;39.05566;99120.03;;;;
2021/04/24 13:47:19;;;;;;;11.2;5.6;;;;;;;13.73;41.45605;99112;;;;
2021/04/24 13:57:18;;;;;;;7.8;4.8;;;;;;;12.96;39.60645;99107.03;;;;
2021/04/24 14:07:17;;;;;;;9.9;5.4;;;;;;;13.51;39.77148;99093.92;;;;
2021/04/24 14:17:17;;;;;;;8.8;3.6;;;;;;;12.87;39.24219;99097.28;;;;
2021/04/24 14:27:16;;;;;;;9.5;5.6;;;;;;;13.2;43.37891;99089.66;;;;
2021/04/24 14:37:15;;;;;;;12.8;9.5;;;;;;;12.66;40.91992;99083.47;;;;
2021/04/24 14:47:15;;;;;;;11.4;7.4;;;;;;;12.43;42.44434;99071.05;;;;
2021/04/24 14:57:14;;;;;;;24.1;14.2;;;;;;;12.62;42.55371;99071.67;;;;
2021/04/24 15:07:13;;;;;;;10.4;6.7;;;;;;;12.58;43.375;99060.67;;;;
2021/04/24 15:17:12;;;;;;;19.4;10;;;;;;;12.52;43.51758;99061.11;;;;
2021/04/24 15:27:11;;;;;;;23.2;17.4;;;;;;;12.51;43.34473;99059.51;;;;
2021/04/24 15:37:10;;;;;;;21.2;15.2;;;;;;;12.34;44.01465;99053.98;;;;
2021/04/24 15:47:09;;;;;;;21.6;17.8;;;;;;;12.18;44.71875;99052.76;;;;
2021/04/24 15:57:08;;;;;;;10.3;9.2;;;;;;;12.34;45.13574;99046.68;;;;
2021/04/24 16:07:07;;;;;;;18.5;12.1;;;;;;;12.6;45.6543;99036.02;;;;
2021/04/24 16:17:07;;;;;;;13.4;9.7;;;;;;;12.65;46.01465;99030.48;;;;
2021/04/24 16:27:06;;;;;;;21.5;11.2;;;;;;;12.2;47.62402;99026.22;;;;
2021/04/24 16:37:05;;;;;;;17.2;9.4;;;;;;;11.79;47.72754;99023.67;;;;
2021/04/24 16:47:04;;;;;;;15.3;10.1;;;;;;;11.42;49.1582;99013.92;;;;
2021/04/24 16:57:03;;;;;;;19.8;15.6;;;;;;;10.97;50.29199;99027.21;;;;
2021/04/24 17:07:02;;;;;;;18.4;10.3;;;;;;;10.69;51.21387;99020.19;;;;
2021/04/24 17:17:01;;;;;;;15.8;8.9;;;;;;;10.43;52.94434;99027.13;;;;
2021/04/24 17:27:00;;;;;;;21.3;13.6;;;;;;;10.26;53.82227;99024.98;;;;
2021/04/24 17:36:58;;;;;;;17.9;11.5;;;;;;;10.01;55.44727;99026.16;;;;
2021/04/24 17:46:57;;;;;;;26.5;18.8;;;;;;;9.77;56.32227;99022.75;;;;
2021/04/24 17:56:56;;;;;;;38.4;24.2;;;;;;;9.43;57.97559;99011.39;;;;
2021/04/24 18:06:55;;;;;;;35.3;25.6;;;;;;;8.82;59.87207;98992.48;;;;
2021/04/24 18:16:53;;;;;;;26.8;21.3;;;;;;;8.52;60.77832;99015.11;;;;
2021/04/24 18:26:52;;;;;;;31.5;22.9;;;;;;;8.31;62.64355;99009.13;;;;
2021/04/24 18:36:50;;;;;;;28.8;20.1;;;;;;;8.09;62.96191;99012.22;;;;
2021/04/24 18:46:49;;;;;;;27.1;20.5;;;;;;;8.07;63.31934;99006.34;;;;
2021/04/24 18:56:47;;;;;;;29.2;23.9;;;;;;;8.06;63.82422;99015.47;;;;
2021/04/24 19:06:46;;;;;;;38.9;27.8;;;;;;;7.94;63.41309;99017.72;;;;
2021/04/24 19:16:45;;;;;;;57.7;40.7;;;;;;;7.88;63.8418;99020.72;;;;
2021/04/24 19:26:43;;;;;;;31.3;25.4;;;;;;;7.78;67.24707;99016.2;;;;
2021/04/24 19:36:42;;;;;;;20.1;18;;;;;;;7.74;67.49902;99025.11;;;;
2021/04/24 19:46:40;;;;;;;49.7;38.9;;;;;;;7.77;68.67188;99029.91;;;;
2021/04/24 19:56:41;;;;;;;43;33.8;;;;;;;7.6;70.0957;99024.92;;;;
2021/04/24 20:06:38;;;;;;;39.5;34.5;;;;;;;7.44;70.14648;99026.06;;;;
2021/04/24 20:16:38;;;;;;;41;33.4;;;;;;;7.28;76.85645;99016.5;;;;
2021/04/24 20:26:34;;;;;;;45;34.5;;;;;;;7.06;73.54883;99023.02;;;;
2021/04/24 20:36:32;;;;;;;53.1;37.8;;;;;;;7.05;74.63379;99017.91;;;;
2021/04/24 20:46:31;;;;;;;47.7;38.1;;;;;;;7.04;74.93457;99017.14;;;;
2021/04/24 20:56:29;;;;;;;41.7;34.1;;;;;;;7;76.91016;99016.08;;;;
2021/04/24 21:06:28;;;;;;;47.6;37;;;;;;;6.98;76.04395;99009.36;;;;
2021/04/24 21:16:26;;;;;;;56.1;45.2;;;;;;;6.97;75.53809;99002.42;;;;
2021/04/24 21:26:24;;;;;;;58.4;46.7;;;;;;;6.94;78.9668;99000.3;;;;
2021/04/24 21:36:23;;;;;;;58.8;41.9;;;;;;;6.83;78.00781;99002.2;;;;
2021/04/24 21:46:21;;;;;;;59.3;43;;;;;;;6.8;78.67383;99008.11;;;;
2021/04/24 21:56:21;;;;;;;44.8;34.7;;;;;;;6.71;78.89063;99000.88;;;;
2021/04/24 22:06:18;;;;;;;56.4;39.8;;;;;;;6.7;80.48828;99005.42;;;;
2021/04/24 22:16:16;;;;;;;52;38.5;;;;;;;6.68;79.62305;99004.11;;;;
2021/04/24 22:26:14;;;;;;;54.1;41.4;;;;;;;6.49;81.1084;98996.64;;;;
2021/04/24 22:36:13;;;;;;;73.7;49.4;;;;;;;6.27;83.97754;98995.34;;;;
2021/04/24 22:46:11;;;;;;;57.5;46.9;;;;;;;6.18;83.63574;98986.27;;;;
2021/04/24 22:56:09;;;;;;;58.2;48;;;;;;;6.19;83.78223;98990.52;;;;
2021/04/24 23:06:08;;;;;;;55;47.6;;;;;;;6.11;84.43652;98999.88;;;;
2021/04/24 23:16:06;;;;;;;60.4;45.8;;;;;;;5.93;86.71777;99000.44;;;;
2021/04/24 23:26:04;;;;;;;69.8;49.5;;;;;;;5.88;87.22949;98985.18;;;;
2021/04/24 23:36:03;;;;;;;53.1;43.4;;;;;;;5.76;87.59375;98983.81;;;;
2021/04/24 23:46:01;;;;;;;57.5;44.4;;;;;;;5.62;87.16602;98969.36;;;;
2021/04/24 23:55:59;;;;;;;59.2;42.1;;;;;;;5.47;86.53516;98954.09;;;;
